createdAt,value
2018-01-11T00:02:40.701Z," 6.60"
2018-01-11T00:07:37.458Z," 6.52"
2018-01-11T00:12:33.722Z," 6.60"
2018-01-11T00:17:29.951Z," 6.49"
2018-01-11T00:22:26.586Z," 6.60"
2018-01-11T00:27:22.482Z," 6.56"
2018-01-11T00:32:19.207Z," 6.56"
2018-01-11T00:37:16.560Z," 6.51"
2018-01-11T00:42:11.823Z," 6.44"
2018-01-11T00:47:08.738Z," 6.38"
2018-01-11T00:52:04.223Z," 6.28"
2018-01-11T00:56:59.625Z," 6.24"
2018-01-11T01:01:55.403Z," 6.24"
2018-01-11T01:06:51.458Z," 6.27"
2018-01-11T01:11:49.256Z," 6.28"
2018-01-11T01:16:43.964Z," 6.31"
2018-01-11T01:21:39.663Z," 6.31"
2018-01-11T01:26:36.374Z," 6.24"
2018-01-11T01:31:32.965Z," 6.30"
2018-01-11T01:36:28.604Z," 6.26"
2018-01-11T01:41:24.244Z," 6.12"
2018-01-11T01:46:20.367Z," 6.12"
2018-01-11T01:51:17.105Z," 6.14"
2018-01-11T01:56:12.791Z," 6.12"
2018-01-11T02:01:09.528Z," 6.04"
2018-01-11T02:06:05.020Z," 6.16"
2018-01-11T02:11:01.999Z," 6.11"
2018-01-11T02:15:58.667Z," 6.07"
2018-01-11T02:20:55.128Z," 6.04"
2018-01-11T02:25:51.429Z," 6.07"
2018-01-11T02:30:46.614Z," 5.93"
2018-01-11T02:35:42.116Z," 6.04"
2018-01-11T02:40:37.771Z," 5.89"
2018-01-11T02:45:34.862Z," 5.90"
2018-01-11T02:50:31.312Z," 6.04"
2018-01-11T02:55:27.795Z," 5.89"
2018-01-11T03:00:24.221Z," 5.99"
2018-01-11T03:05:20.625Z," 5.90"
2018-01-11T03:10:16.042Z," 6.08"
2018-01-11T03:15:11.789Z," 5.99"
2018-01-11T03:20:09.110Z," 6.09"
2018-01-11T03:25:04.633Z," 5.99"
2018-01-11T03:30:01.476Z," 6.02"
2018-01-11T03:34:56.983Z," 6.09"
2018-01-11T03:39:52.656Z," 6.20"
2018-01-11T03:44:50.691Z," 6.26"
2018-01-11T03:49:47.471Z," 6.42"
2018-01-11T03:54:44.056Z," 6.45"
2018-01-11T03:59:41.174Z," 6.46"
2018-01-11T04:04:36.626Z," 6.60"
2018-01-11T04:09:33.861Z," 6.46"
2018-01-11T04:14:30.330Z," 6.48"
2018-01-11T04:19:25.763Z," 6.51"
2018-01-11T04:24:22.351Z," 6.54"
2018-01-11T04:29:17.891Z," 6.49"
2018-01-11T04:34:13.993Z," 6.46"
2018-01-11T04:39:09.616Z," 6.46"
2018-01-11T04:44:05.723Z," 6.42"
2018-01-11T04:49:02.340Z," 6.42"
2018-01-11T04:53:58.201Z," 6.42"
2018-01-11T04:58:53.935Z," 6.31"
2018-01-11T05:03:49.275Z," 6.17"
2018-01-11T05:08:46.399Z," 6.11"
2018-01-11T05:13:42.374Z," 6.12"
2018-01-11T05:18:37.839Z," 6.11"
2018-01-11T05:23:33.552Z," 6.11"
2018-01-11T05:28:29.436Z," 6.20"
2018-01-11T05:33:25.254Z," 6.20"
2018-01-11T05:38:26.168Z," 6.26"
2018-01-11T05:43:21.028Z," 6.22"
2018-01-11T05:48:17.120Z," 6.12"
2018-01-11T05:53:13.470Z," 6.12"
2018-01-11T05:58:09.066Z," 6.05"
2018-01-11T06:03:04.501Z," 6.05"
2018-01-11T06:08:02.257Z," 6.26"
2018-01-11T06:12:59.369Z," 6.19"
2018-01-11T06:17:55.206Z," 6.27"
2018-01-11T06:22:50.803Z," 6.28"
2018-01-11T06:27:46.430Z," 6.26"
2018-01-11T06:32:43.385Z," 6.20"
2018-01-11T06:37:38.893Z," 6.12"
2018-01-11T06:42:35.507Z," 6.27"
2018-01-11T06:47:31.973Z," 6.31"
2018-01-11T06:52:27.538Z," 6.26"
2018-01-11T06:57:24.142Z," 6.31"
2018-01-11T07:02:20.517Z," 6.27"
2018-01-11T07:07:17.449Z," 6.22"
2018-01-11T07:12:12.897Z," 6.28"
2018-01-11T07:17:10.037Z," 6.35"
2018-01-11T07:22:07.517Z," 6.41"
2018-01-11T07:27:03.772Z," 6.36"
2018-01-11T07:31:59.180Z," 6.41"
2018-01-11T07:36:56.700Z," 6.30"
2018-01-11T07:41:53.287Z," 6.27"
2018-01-11T07:46:49.833Z," 6.27"
2018-01-11T07:51:47.397Z," 6.26"
2018-01-11T07:56:42.535Z," 6.14"
2018-01-11T08:01:42.203Z," 6.28"
2018-01-11T08:06:37.354Z," 6.27"
2018-01-11T08:11:33.339Z," 6.42"
2018-01-11T08:16:30.099Z," 6.42"
2018-01-11T08:21:26.288Z," 6.52"
2018-01-11T08:26:21.968Z," 6.56"
2018-01-11T08:31:17.791Z," 6.49"
2018-01-11T08:36:14.651Z," 6.51"
2018-01-11T08:41:09.861Z," 6.60"
2018-01-11T08:46:07.689Z," 6.64"
2018-01-11T08:51:03.938Z," 6.60"
2018-01-11T08:56:00.690Z," 6.56"
2018-01-11T09:00:56.227Z," 6.60"
2018-01-11T09:05:53.122Z," 6.62"
2018-01-11T09:10:48.420Z," 6.77"
2018-01-11T09:15:45.217Z," 6.81"
2018-01-11T09:20:40.846Z," 6.92"
2018-01-11T09:25:36.773Z," 6.88"
2018-01-11T09:30:33.265Z," 6.96"
2018-01-11T09:35:30.150Z," 7.05"
2018-01-11T09:40:25.894Z," 7.15"
2018-01-11T09:45:23.623Z," 7.40"
2018-01-11T09:50:19.358Z," 7.76"
2018-01-11T09:55:17.037Z," 8.06"
2018-01-11T10:00:14.205Z," 8.45"
2018-01-11T10:05:10.231Z," 8.74"
2018-01-11T10:10:07.802Z," 9.02"
2018-01-11T10:15:03.541Z," 9.39"
2018-01-11T10:19:59.392Z," 9.04"
2018-01-11T10:24:55.810Z," 9.13"
2018-01-11T10:29:51.225Z," 9.16"
2018-01-11T10:34:47.946Z," 9.14"
2018-01-11T10:39:43.508Z," 8.95"
2018-01-11T10:44:41.380Z," 8.97"
2018-01-11T10:49:37.490Z," 9.19"
2018-01-11T10:54:34.372Z," 9.26"
2018-01-11T10:59:32.068Z," 9.31"
2018-01-11T11:04:28.420Z," 9.36"
2018-01-11T11:09:24.162Z," 9.16"
2018-01-11T11:14:19.907Z," 9.25"
2018-01-11T11:19:15.545Z," 9.34"
2018-01-11T11:24:12.623Z," 9.51"
2018-01-11T11:29:08.688Z," 9.44"
2018-01-11T11:34:04.418Z," 9.46"
2018-01-11T11:38:59.829Z," 9.48"
2018-01-11T11:43:56.760Z," 9.41"
2018-01-11T11:48:53.257Z," 9.36"
2018-01-11T11:53:48.755Z," 9.32"
2018-01-11T11:58:46.099Z," 9.32"
2018-01-11T12:03:42.895Z," 9.34"
2018-01-11T12:08:39.413Z," 9.41"
2018-01-11T12:13:37.773Z," 9.41"
2018-01-11T12:18:33.035Z," 9.44"
2018-01-11T12:23:28.876Z," 9.39"
2018-01-11T12:28:24.774Z," 9.47"
2018-01-11T12:33:21.456Z," 9.36"
2018-01-11T12:38:17.021Z," 9.26"
2018-01-11T12:43:12.827Z," 9.14"
2018-01-11T12:48:09.486Z," 9.21"
2018-01-11T12:53:05.871Z," 9.13"
2018-01-11T12:58:02.084Z," 8.92"
2018-01-11T13:02:57.472Z," 8.94"
2018-01-11T13:07:54.438Z," 8.94"
2018-01-11T13:12:51.566Z," 8.94"
2018-01-11T13:17:48.833Z," 8.88"
2018-01-11T13:22:46.260Z," 8.88"
2018-01-11T13:27:43.679Z," 8.87"
2018-01-11T13:32:40.110Z," 8.89"
2018-01-11T13:37:35.561Z," 8.82"
2018-01-11T13:42:31.229Z," 8.81"
2018-01-11T13:47:27.088Z," 8.78"
2018-01-11T13:52:22.748Z," 8.82"
2018-01-11T13:57:18.270Z," 8.76"
2018-01-11T14:02:14.097Z," 8.78"
2018-01-11T14:07:11.020Z," 8.85"
2018-01-11T14:12:06.606Z," 8.67"
2018-01-11T14:17:03.305Z," 8.79"
2018-01-11T14:21:58.620Z," 8.70"
2018-01-11T14:26:54.815Z," 8.74"
2018-01-11T14:31:50.768Z," 8.71"
2018-01-11T14:36:48.419Z," 8.64"
2018-01-11T14:41:44.692Z," 8.79"
2018-01-11T14:46:40.024Z," 8.71"
2018-01-11T14:51:36.814Z," 8.69"
2018-01-11T14:56:32.310Z," 8.64"
2018-01-11T15:01:29.762Z," 8.51"
2018-01-11T15:06:25.228Z," 8.61"
2018-01-11T15:11:21.883Z," 8.51"
2018-01-11T15:16:17.122Z," 8.55"
2018-01-11T15:21:12.972Z," 8.52"
2018-01-11T15:26:09.652Z," 8.48"
2018-01-11T15:31:05.057Z," 8.38"
2018-01-11T15:36:00.651Z," 8.36"
2018-01-11T15:40:56.828Z," 8.46"
2018-01-11T15:45:52.607Z," 8.33"
2018-01-11T15:50:49.256Z," 8.30"
2018-01-11T15:55:45.581Z," 8.16"
2018-01-11T16:00:40.875Z," 8.10"
2018-01-11T16:05:36.502Z," 7.98"
2018-01-11T16:10:33.261Z," 7.93"
2018-01-11T16:15:29.176Z," 7.90"
2018-01-11T16:20:26.879Z," 7.83"
2018-01-11T16:25:22.206Z," 7.80"
2018-01-11T16:30:17.808Z," 7.80"
2018-01-11T16:35:13.222Z," 7.70"
2018-01-11T16:40:11.073Z," 7.69"
2018-01-11T16:45:06.473Z," 7.63"
2018-01-11T16:50:02.169Z," 7.61"
2018-01-11T16:54:57.936Z," 7.54"
2018-01-11T16:59:54.383Z," 7.50"
2018-01-11T17:04:50.152Z," 7.47"
2018-01-11T17:09:46.490Z," 7.39"
2018-01-11T17:14:43.070Z," 7.35"
2018-01-11T17:19:39.390Z," 7.31"
2018-01-11T17:24:35.902Z," 7.31"
2018-01-11T17:29:32.331Z," 7.31"
2018-01-11T17:34:27.482Z," 7.23"
2018-01-11T17:39:24.203Z," 7.15"
2018-01-11T17:44:19.585Z," 7.21"
2018-01-11T17:49:15.116Z," 7.17"
2018-01-11T17:54:11.966Z," 7.18"
2018-01-11T17:59:08.409Z," 7.15"
2018-01-11T18:04:04.431Z," 7.10"
2018-01-11T18:09:02.171Z," 7.11"
2018-01-11T18:13:57.545Z," 7.10"
2018-01-11T18:18:53.644Z," 7.03"
2018-01-11T18:23:51.042Z," 7.10"
2018-01-11T18:28:47.079Z," 6.97"
2018-01-11T18:33:42.561Z," 6.96"
2018-01-11T18:38:40.418Z," 6.82"
2018-01-11T18:43:37.424Z," 6.63"
2018-01-11T18:48:33.403Z," 6.66"
2018-01-11T18:53:29.164Z," 6.56"
2018-01-11T18:58:24.943Z," 6.49"
2018-01-11T19:03:20.707Z," 6.51"
2018-01-11T19:08:17.196Z," 6.36"
2018-01-11T19:13:12.505Z," 6.28"
2018-01-11T19:18:07.845Z," 6.22"
2018-01-11T19:23:04.022Z," 6.08"
2018-01-11T19:28:01.523Z," 6.09"
2018-01-11T19:32:57.940Z," 5.98"
2018-01-11T19:37:54.353Z," 5.91"
2018-01-11T19:42:51.836Z," 5.87"
2018-01-11T19:47:48.175Z," 5.80"
2018-01-11T19:52:44.870Z," 5.66"
2018-01-11T19:57:41.174Z," 5.72"
2018-01-11T20:02:38.672Z," 5.53"
2018-01-11T20:07:34.803Z," 5.39"
2018-01-11T20:12:30.314Z," 5.33"
2018-01-11T20:17:25.664Z," 5.32"
2018-01-11T20:22:22.348Z," 5.28"
2018-01-11T20:27:17.593Z," 5.18"
2018-01-11T20:32:14.112Z," 5.10"
2018-01-11T20:37:11.164Z," 5.04"
2018-01-11T20:42:07.345Z," 4.96"
2018-01-11T20:47:04.132Z," 4.96"
2018-01-11T20:52:00.237Z," 4.90"
2018-01-11T20:56:56.546Z," 4.74"
2018-01-11T21:01:52.085Z," 4.66"
2018-01-11T21:06:48.935Z," 4.70"
2018-01-11T21:11:44.358Z," 4.71"
2018-01-11T21:16:39.763Z," 4.60"
2018-01-11T21:21:37.710Z," 4.56"
2018-01-11T21:26:33.256Z," 4.53"
2018-01-11T21:31:28.825Z," 4.42"
2018-01-11T21:36:24.759Z," 4.48"
2018-01-11T21:41:24.274Z," 4.38"
2018-01-11T21:46:19.052Z," 4.37"
2018-01-11T21:51:15.670Z," 4.37"
2018-01-11T21:56:11.137Z," 4.17"
2018-01-11T22:01:06.844Z," 4.17"
2018-01-11T22:06:02.502Z," 4.22"
2018-01-11T22:10:58.307Z," 4.16"
2018-01-11T22:15:55.096Z," 4.14"
2018-01-11T22:20:52.336Z," 4.02"
2018-01-11T22:25:49.187Z," 4.10"
2018-01-11T22:30:45.423Z," 4.08"
2018-01-11T22:35:41.742Z," 4.12"
2018-01-11T22:40:37.123Z," 3.99"
2018-01-11T22:45:33.472Z," 3.88"
2018-01-11T22:50:29.542Z," 3.88"
2018-01-11T22:55:25.133Z," 3.92"
2018-01-11T23:00:20.897Z," 3.78"
2018-01-11T23:05:16.429Z," 3.78"
2018-01-11T23:10:13.738Z," 3.69"
2018-01-11T23:15:10.579Z," 3.70"
2018-01-11T23:20:06.943Z," 3.73"
2018-01-11T23:25:03.541Z," 3.70"
2018-01-11T23:29:59.635Z," 3.83"
2018-01-11T23:34:55.407Z," 3.81"
2018-01-11T23:39:53.139Z," 3.86"
2018-01-11T23:44:50.519Z," 3.81"
2018-01-11T23:49:46.841Z," 3.83"
2018-01-11T23:54:44.102Z," 3.91"
2018-01-11T23:59:41.241Z," 4.04"
